Time;durP1;ratioP1;P1;durP2;ratioP2;P2;SDS_P1;SDS_P2;PMS_P1;PMS_P2;Temp;Humidity;BMP_temperature;BMP_pressure;BME280_temperature;BME280_humidity;BME280_pressure;Samples;Min_cycle;Max_cycle;Signal;HPM_P1;HPM_P2
2023/04/19 00:01:36;;;;;;;12.05;8.48;;;8.60;99.90;;;;;;5034748;28;20045;-79
2023/04/19 00:04:02;;;;;;;12.07;8.38;;;8.50;99.90;;;;;;5031965;28;20063;-78
2023/04/19 00:06:29;;;;;;;12.02;9.30;;;8.50;99.90;;;;;;5030571;28;20156;-79
2023/04/19 00:08:56;;;;;;;11.45;9.43;;;8.50;99.90;;;;;;5034651;28;20580;-80
2023/04/19 00:11:22;;;;;;;9.93;8.82;;;8.50;99.90;;;;;;5024079;28;20087;-80
2023/04/19 00:13:48;;;;;;;10.60;9.50;;;8.50;99.90;;;;;;5035636;28;20048;-78
2023/04/19 00:16:15;;;;;;;14.10;9.85;;;8.50;99.90;;;;;;5040140;28;20092;-79
2023/04/19 00:18:41;;;;;;;10.95;9.75;;;8.40;99.90;;;;;;5049974;28;20056;-80
2023/04/19 00:21:07;;;;;;;10.82;9.73;;;8.40;99.90;;;;;;5024366;28;20087;-80
2023/04/19 00:23:33;;;;;;;11.20;9.15;;;8.40;99.90;;;;;;5029263;28;20127;-80
2023/04/19 00:26:02;;;;;;;13.15;9.55;;;8.40;99.90;;;;;;5041214;28;20049;-80
2023/04/19 00:28:28;;;;;;;13.55;11.00;;;8.40;99.90;;;;;;5038085;28;20060;-80
2023/04/19 00:30:54;;;;;;;13.38;10.93;;;8.40;99.90;;;;;;5034124;28;20041;-79
2023/04/19 00:33:19;;;;;;;11.45;10.15;;;8.40;99.90;;;;;;5035641;28;20055;-81
2023/04/19 00:35:45;;;;;;;12.23;9.02;;;8.40;99.90;;;;;;5037694;28;20049;-80
2023/04/19 00:38:11;;;;;;;10.55;9.27;;;8.40;99.90;;;;;;5033393;28;20060;-79
2023/04/19 00:40:36;;;;;;;12.65;8.80;;;8.30;99.90;;;;;;5035877;28;20127;-79
2023/04/19 00:43:02;;;;;;;11.32;9.07;;;8.30;99.90;;;;;;5040888;28;20049;-79
2023/04/19 00:45:28;;;;;;;9.77;8.35;;;8.30;99.90;;;;;;5020708;28;20053;-81
2023/04/19 00:47:54;;;;;;;10.93;7.90;;;8.30;99.90;;;;;;5033369;28;20408;-80
2023/04/19 00:50:21;;;;;;;10.90;7.80;;;8.20;99.90;;;;;;5025755;28;20750;-79
2023/04/19 00:52:47;;;;;;;10.32;7.82;;;8.20;99.90;;;;;;5032385;28;20052;-80
2023/04/19 00:55:13;;;;;;;12.20;8.65;;;8.20;99.90;;;;;;5036961;28;20156;-79
2023/04/19 00:57:39;;;;;;;11.50;8.60;;;8.20;99.90;;;;;;5041812;28;20060;-79
2023/04/19 01:00:07;;;;;;;11.13;8.98;;;8.20;99.90;;;;;;5028475;28;20047;-79
2023/04/19 01:02:33;;;;;;;9.25;7.75;;;8.10;99.90;;;;;;5032027;28;20130;-79
2023/04/19 01:04:59;;;;;;;10.52;8.52;;;8.10;99.90;;;;;;5033911;28;20393;-79
2023/04/19 01:07:25;;;;;;;11.48;8.98;;;8.10;99.90;;;;;;5039105;28;20053;-80
2023/04/19 01:09:51;;;;;;;9.65;8.13;;;8.00;99.90;;;;;;5035102;28;20072;-80
2023/04/19 01:12:16;;;;;;;11.90;8.75;;;8.00;99.90;;;;;;5027137;28;20087;-80
2023/04/19 01:14:43;;;;;;;12.90;9.35;;;8.00;99.90;;;;;;5036327;28;20053;-81
2023/04/19 01:17:08;;;;;;;12.65;10.32;;;8.00;99.90;;;;;;5027228;28;20057;-79
2023/04/19 01:19:35;;;;;;;11.32;9.00;;;8.00;99.90;;;;;;5028741;28;20053;-80
2023/04/19 01:22:02;;;;;;;12.93;10.30;;;7.70;99.90;;;;;;5038380;28;20056;-80
2023/04/19 01:24:29;;;;;;;13.32;10.15;;;7.90;99.90;;;;;;5040556;28;20057;-80
2023/04/19 01:26:55;;;;;;;15.95;10.15;;;7.90;99.90;;;;;;5033494;28;20050;-80
2023/04/19 01:29:21;;;;;;;13.32;9.85;;;7.80;99.90;;;;;;5034939;28;20670;-80
2023/04/19 01:31:52;;;;;;;13.70;10.73;;;7.80;99.90;;;;;;5022399;28;20604;-80
2023/04/19 01:34:23;;;;;;;12.65;10.30;;;7.80;99.90;;;;;;5022144;28;20473;-79
2023/04/19 01:36:49;;;;;;;12.35;10.13;;;7.70;99.90;;;;;;5032845;28;20049;-80
2023/04/19 01:39:15;;;;;;;13.50;10.43;;;7.70;99.90;;;;;;5036463;28;20041;-80
2023/04/19 01:41:41;;;;;;;12.80;10.90;;;7.70;99.90;;;;;;5036370;28;20141;-80
2023/04/19 01:44:06;;;;;;;15.38;10.95;;;7.70;99.90;;;;;;5030345;28;20049;-81
2023/04/19 01:46:32;;;;;;;13.98;11.98;;;7.70;99.90;;;;;;5023822;28;20517;-80
2023/04/19 01:48:58;;;;;;;17.98;11.18;;;7.70;99.90;;;;;;5041859;28;20057;-80
2023/04/19 01:51:23;;;;;;;15.32;10.38;;;7.60;99.90;;;;;;5040252;28;20068;-79
2023/04/19 01:53:52;;;;;;;11.93;10.75;;;7.60;99.90;;;;;;5041187;28;20173;-80
2023/04/19 01:56:18;;;;;;;12.98;11.50;;;7.60;99.90;;;;;;5035894;28;20071;-80
2023/04/19 01:58:44;;;;;;;12.25;10.85;;;7.60;99.90;;;;;;5032739;28;20127;-80
2023/04/19 02:01:11;;;;;;;16.90;12.15;;;7.50;99.90;;;;;;5039966;28;20049;-80
2023/04/19 02:03:38;;;;;;;12.13;10.20;;;7.60;99.90;;;;;;5040607;28;20133;-80
2023/04/19 02:06:04;;;;;;;11.82;10.38;;;7.50;99.90;;;;;;5040083;28;20045;-80
2023/04/19 02:08:29;;;;;;;14.20;11.30;;;7.50;99.90;;;;;;5040984;28;20064;-80
2023/04/19 02:10:55;;;;;;;16.65;10.38;;;7.50;99.90;;;;;;5040176;28;20218;-80
2023/04/19 02:13:21;;;;;;;16.30;10.90;;;7.40;99.90;;;;;;5038956;28;20873;-80
2023/04/19 02:15:46;;;;;;;13.38;10.95;;;7.50;99.90;;;;;;5034494;28;20414;-80
2023/04/19 02:18:12;;;;;;;14.55;12.55;;;7.40;99.90;;;;;;5020185;28;20065;-80
2023/04/19 02:20:38;;;;;;;15.63;10.85;;;7.40;99.90;;;;;;5025926;28;20546;-80
2023/04/19 02:23:04;;;;;;;12.20;10.85;;;7.40;99.90;;;;;;5040585;28;20056;-81
2023/04/19 02:25:30;;;;;;;14.20;10.57;;;7.30;99.90;;;;;;5027594;28;20068;-81
2023/04/19 02:27:56;;;;;;;13.60;10.57;;;7.30;99.90;;;;;;5036836;28;20055;-79
2023/04/19 02:30:22;;;;;;;13.30;10.10;;;7.30;99.90;;;;;;5037975;28;20524;-80
2023/04/19 02:32:48;;;;;;;15.57;10.48;;;7.20;99.90;;;;;;5036598;28;20049;-79
2023/04/19 02:35:14;;;;;;;12.63;9.70;;;7.20;99.90;;;;;;5040756;28;20052;-80
2023/04/19 02:37:41;;;;;;;12.93;9.77;;;7.50;99.90;;;;;;5039406;28;20433;-80
2023/04/19 02:40:07;;;;;;;13.13;9.45;;;7.20;99.90;;;;;;5040959;28;20150;-79
2023/04/19 02:42:32;;;;;;;11.80;9.40;;;7.10;99.90;;;;;;5037027;28;20052;-79
2023/04/19 02:44:58;;;;;;;11.38;9.07;;;7.10;99.90;;;;;;5030085;28;20049;-80
2023/04/19 02:47:24;;;;;;;10.55;8.65;;;7.10;99.90;;;;;;5037852;28;20049;-79
2023/04/19 02:49:49;;;;;;;11.68;9.48;;;7.10;99.90;;;;;;5040258;28;20110;-80
2023/04/19 02:52:15;;;;;;;9.93;7.95;;;7.00;99.90;;;;;;5038486;28;20045;-80
2023/04/19 02:54:41;;;;;;;11.07;8.32;;;7.00;99.90;;;;;;5028832;28;20045;-80
2023/04/19 02:57:06;;;;;;;9.18;8.20;;;7.00;99.90;;;;;;5025564;28;20048;-80
2023/04/19 02:59:32;;;;;;;12.38;8.55;;;6.90;99.90;;;;;;5034784;28;20883;-79
2023/04/19 03:01:58;;;;;;;15.68;8.50;;;6.90;99.90;;;;;;5037918;28;20049;-80
2023/04/19 03:04:23;;;;;;;9.32;8.27;;;6.90;99.90;;;;;;5032101;28;20056;-79
2023/04/19 03:06:49;;;;;;;11.55;8.10;;;6.80;99.90;;;;;;5033285;28;20048;-80
2023/04/19 03:09:15;;;;;;;9.55;7.65;;;6.80;99.90;;;;;;5035530;28;20065;-79
2023/04/19 03:11:41;;;;;;;11.15;7.82;;;6.80;99.90;;;;;;5021734;28;20053;-80
2023/04/19 03:14:07;;;;;;;9.10;7.25;;;6.70;99.90;;;;;;5031470;28;20059;-80
2023/04/19 03:16:32;;;;;;;11.93;8.57;;;6.70;99.90;;;;;;5019640;28;20065;-80
2023/04/19 03:18:58;;;;;;;8.52;7.00;;;6.70;99.90;;;;;;5021788;28;20187;-80
2023/04/19 03:21:26;;;;;;;10.45;8.27;;;6.70;99.90;;;;;;5022852;28;20064;-80
2023/04/19 03:23:53;;;;;;;11.48;8.32;;;6.70;99.90;;;;;;5038096;28;20366;-80
2023/04/19 03:26:18;;;;;;;9.52;7.50;;;6.70;99.90;;;;;;5038626;28;20129;-80
2023/04/19 03:28:44;;;;;;;9.50;7.75;;;6.60;99.90;;;;;;5037148;28;20045;-79
2023/04/19 03:31:10;;;;;;;10.85;8.20;;;6.60;99.90;;;;;;5034420;28;20049;-80
2023/04/19 03:33:35;;;;;;;10.43;7.78;;;6.60;99.90;;;;;;5030305;28;20045;-79
2023/04/19 03:36:01;;;;;;;10.45;7.90;;;6.50;99.90;;;;;;5040753;28;20568;-80
2023/04/19 03:38:27;;;;;;;9.75;8.02;;;6.60;99.90;;;;;;5043919;28;20825;-80
2023/04/19 03:40:54;;;;;;;9.13;7.38;;;6.60;99.90;;;;;;5043706;28;20056;-79
2023/04/19 03:43:21;;;;;;;9.57;8.50;;;6.50;99.90;;;;;;5042606;28;20052;-80
2023/04/19 03:45:46;;;;;;;11.38;8.38;;;6.50;99.90;;;;;;5033241;28;20171;-80
2023/04/19 03:48:12;;;;;;;11.98;7.50;;;6.50;99.90;;;;;;5024267;28;20092;-79
2023/04/19 03:50:38;;;;;;;10.85;8.32;;;6.40;99.90;;;;;;5033224;28;20045;-80
2023/04/19 03:53:04;;;;;;;9.13;8.20;;;6.40;99.90;;;;;;5029614;28;20049;-80
2023/04/19 03:55:30;;;;;;;9.98;7.63;;;6.30;99.90;;;;;;5043808;28;20056;-80
2023/04/19 03:57:56;;;;;;;8.57;7.75;;;7.00;99.90;;;;;;5025675;28;20052;-80
2023/04/19 04:00:21;;;;;;;9.25;8.00;;;6.30;99.90;;;;;;5055692;28;20045;-80
2023/04/19 04:02:47;;;;;;;14.52;7.53;;;6.30;99.90;;;;;;5040542;28;20133;-80
2023/04/19 04:05:13;;;;;;;8.20;7.13;;;6.20;99.90;;;;;;5042565;28;20079;-80
2023/04/19 04:07:39;;;;;;;12.23;7.18;;;6.20;99.90;;;;;;5040861;28;20057;-80
2023/04/19 04:10:05;;;;;;;12.10;8.98;;;6.20;99.90;;;;;;5041660;28;20056;-81
2023/04/19 04:12:31;;;;;;;10.07;7.65;;;6.10;99.90;;;;;;5038874;28;20058;-81
2023/04/19 04:14:57;;;;;;;8.18;6.90;;;6.10;99.90;;;;;;5040758;28;20256;-79
2023/04/19 04:17:23;;;;;;;11.80;7.95;;;6.10;99.90;;;;;;5038958;28;20044;-80
2023/04/19 04:19:49;;;;;;;10.30;7.35;;;6.10;99.90;;;;;;5030130;28;20506;-80
2023/04/19 04:22:15;;;;;;;8.05;7.00;;;6.00;99.90;;;;;;5032621;28;20060;-80
2023/04/19 04:24:41;;;;;;;8.43;6.95;;;6.00;99.90;;;;;;5010537;28;20041;-79
2023/04/19 04:27:10;;;;;;;9.85;7.88;;;6.00;99.90;;;;;;5041814;28;20041;-80
2023/04/19 04:29:36;;;;;;;8.15;7.35;;;6.00;99.90;;;;;;5040927;28;20041;-80
2023/04/19 04:32:07;;;;;;;10.40;6.95;;;5.90;99.90;;;;;;5043049;28;20056;-79
2023/04/19 04:34:33;;;;;;;14.77;7.95;;;5.90;99.90;;;;;;5041214;28;20053;-78
2023/04/19 04:36:59;;;;;;;10.18;7.15;;;5.80;99.90;;;;;;5042917;28;20044;-78
2023/04/19 04:39:25;;;;;;;8.07;6.72;;;5.80;99.90;;;;;;5034869;28;20075;-79
2023/04/19 04:41:52;;;;;;;10.65;7.35;;;5.80;99.90;;;;;;5039065;28;20122;-79
2023/04/19 04:44:19;;;;;;;12.63;8.20;;;6.00;99.90;;;;;;5039373;28;20102;-80
2023/04/19 04:46:45;;;;;;;10.13;7.47;;;5.80;99.90;;;;;;5039264;28;20080;-80
2023/04/19 04:49:11;;;;;;;7.72;6.53;;;5.80;99.90;;;;;;5039159;28;20149;-80
2023/04/19 04:51:36;;;;;;;10.00;7.88;;;5.80;99.90;;;;;;5035723;28;20410;-80
2023/04/19 04:54:04;;;;;;;9.18;7.05;;;5.80;99.90;;;;;;5034964;28;20049;-80
2023/04/19 04:56:29;;;;;;;9.68;7.07;;;5.80;99.90;;;;;;5030221;28;20045;-80
2023/04/19 04:58:56;;;;;;;10.27;7.72;;;5.80;99.90;;;;;;5038590;28;20103;-79
2023/04/19 05:01:22;;;;;;;10.55;7.70;;;5.80;99.90;;;;;;5030299;28;20063;-80
2023/04/19 05:03:49;;;;;;;10.80;7.80;;;5.80;99.90;;;;;;5040056;28;20494;-78
2023/04/19 05:06:15;;;;;;;12.45;7.32;;;5.80;99.90;;;;;;5032476;28;20382;-80
2023/04/19 05:08:40;;;;;;;10.60;7.03;;;5.80;99.90;;;;;;5037235;28;20059;-80
2023/04/19 05:11:07;;;;;;;7.45;6.57;;;5.80;99.90;;;;;;5030440;28;20171;-81
2023/04/19 05:13:33;;;;;;;9.52;5.95;;;5.80;99.90;;;;;;5034220;28;20056;-80
2023/04/19 05:15:58;;;;;;;10.57;6.93;;;5.90;99.90;;;;;;5035336;28;20045;-79
2023/04/19 05:18:24;;;;;;;9.63;6.90;;;5.90;99.90;;;;;;5025829;28;20300;-79
2023/04/19 05:20:50;;;;;;;9.98;6.18;;;5.90;99.90;;;;;;5026750;28;20089;-80
2023/04/19 05:23:16;;;;;;;9.63;7.22;;;5.90;99.90;;;;;;5036715;28;20045;-80
2023/04/19 05:25:41;;;;;;;7.60;6.53;;;6.00;99.90;;;;;;5037327;28;20871;-78
2023/04/19 05:28:07;;;;;;;7.88;6.32;;;6.10;99.90;;;;;;5035337;28;20096;-80
2023/04/19 05:30:33;;;;;;;8.57;6.25;;;6.10;99.90;;;;;;5036999;28;20056;-81
2023/04/19 05:32:59;;;;;;;6.85;6.07;;;6.20;99.90;;;;;;5039124;28;20087;-79
2023/04/19 05:35:25;;;;;;;8.68;5.82;;;6.20;99.90;;;;;;5039605;28;20528;-80
2023/04/19 05:37:51;;;;;;;7.13;5.55;;;6.30;99.90;;;;;;5033722;28;20660;-79
2023/04/19 05:40:18;;;;;;;8.18;6.57;;;6.30;99.90;;;;;;5035616;28;20049;-80
2023/04/19 05:42:43;;;;;;;7.15;6.45;;;6.30;99.90;;;;;;5064199;28;20059;-80
2023/04/19 05:45:10;;;;;;;10.10;5.70;;;6.40;99.90;;;;;;5024646;28;20053;-79
2023/04/19 05:47:35;;;;;;;8.90;6.15;;;6.50;99.90;;;;;;5036842;28;20044;-79
2023/04/19 05:50:02;;;;;;;9.85;6.05;;;6.50;99.90;;;;;;5035304;28;20041;-80
2023/04/19 05:52:28;;;;;;;6.28;5.60;;;6.60;99.90;;;;;;5027947;28;20049;-80
2023/04/19 05:54:54;;;;;;;6.70;4.82;;;6.70;99.90;;;;;;5030102;28;20049;-78
2023/04/19 05:57:19;;;;;;;6.32;5.40;;;6.80;99.90;;;;;;5019083;28;20046;-79
2023/04/19 05:59:45;;;;;;;7.45;5.18;;;6.80;99.90;;;;;;5033239;28;20050;-79
2023/04/19 06:02:11;;;;;;;7.38;5.10;;;6.90;99.90;;;;;;5031499;28;20751;-79
2023/04/19 06:04:37;;;;;;;8.70;5.22;;;7.00;99.90;;;;;;5037762;28;20120;-79
2023/04/19 06:07:02;;;;;;;8.82;5.43;;;7.00;99.90;;;;;;5038400;28;20091;-80
2023/04/19 06:09:28;;;;;;;6.18;4.82;;;7.10;99.90;;;;;;5032740;28;20088;-79
2023/04/19 06:11:54;;;;;;;8.07;4.82;;;7.20;99.90;;;;;;5037750;28;20048;-79
2023/04/19 06:14:19;;;;;;;11.77;5.88;;;7.20;99.90;;;;;;5032328;28;20123;-78
2023/04/19 06:16:45;;;;;;;7.28;5.07;;;7.30;99.90;;;;;;5027047;28;20111;-78
2023/04/19 06:19:11;;;;;;;4.95;4.45;;;7.40;99.90;;;;;;5025553;28;20489;-80
2023/04/19 06:21:37;;;;;;;5.68;4.72;;;7.40;99.90;;;;;;5037581;28;20091;-84
2023/04/19 06:24:04;;;;;;;5.07;4.20;;;7.50;99.90;;;;;;5047809;28;20768;-77
2023/04/19 06:26:30;;;;;;;5.13;4.63;;;7.70;99.90;;;;;;5026716;28;20455;-78
2023/04/19 06:28:56;;;;;;;4.80;4.30;;;7.70;99.90;;;;;;5034638;28;20132;-78
2023/04/19 06:31:23;;;;;;;7.10;5.30;;;7.80;99.90;;;;;;5030492;28;20045;-78
2023/04/19 06:33:49;;;;;;;6.35;4.57;;;7.90;99.90;;;;;;5033775;28;20548;-78
2023/04/19 06:36:15;;;;;;;6.75;4.07;;;7.30;99.90;;;;;;5032644;28;20405;-78
2023/04/19 06:38:40;;;;;;;4.75;4.22;;;8.20;99.90;;;;;;5029863;28;20047;-79
2023/04/19 06:41:06;;;;;;;7.10;4.78;;;8.30;99.90;;;;;;5033866;28;20052;-78
2023/04/19 06:43:32;;;;;;;6.07;4.35;;;8.40;99.90;;;;;;5033652;28;20256;-78
2023/04/19 06:45:58;;;;;;;6.25;4.13;;;8.50;99.90;;;;;;5037695;28;20654;-77
2023/04/19 06:48:25;;;;;;;5.05;4.18;;;8.60;99.90;;;;;;5034588;28;20048;-77
2023/04/19 06:50:50;;;;;;;4.95;4.47;;;8.60;99.90;;;;;;5037576;28;20045;-77
2023/04/19 06:53:16;;;;;;;5.57;4.70;;;8.60;99.90;;;;;;5036164;28;20849;-77
2023/04/19 06:55:42;;;;;;;4.60;3.83;;;8.60;99.90;;;;;;5033550;28;20052;-78
2023/04/19 06:58:09;;;;;;;5.68;3.78;;;8.90;99.90;;;;;;5036433;28;20049;-78
2023/04/19 07:00:35;;;;;;;7.72;4.25;;;8.90;99.90;;;;;;5035442;28;20409;-77
2023/04/19 07:03:01;;;;;;;5.97;3.20;;;9.10;99.90;;;;;;5034482;28;20041;-77
2023/04/19 07:05:27;;;;;;;7.43;3.35;;;9.30;99.90;;;;;;5038124;28;20087;-77
2023/04/19 07:07:53;;;;;;;3.88;3.13;;;10.10;99.90;;;;;;5037788;28;20159;-78
2023/04/19 07:10:19;;;;;;;5.70;4.25;;;11.40;99.90;;;;;;5038036;28;20846;-77
2023/04/19 07:12:44;;;;;;;3.33;2.65;;;12.40;96.20;;;;;;5036659;28;20831;-78
2023/04/19 07:15:11;;;;;;;4.22;3.05;;;13.40;94.60;;;;;;5038040;28;20122;-77
2023/04/19 07:17:36;;;;;;;5.47;2.90;;;14.30;92.80;;;;;;5035632;28;20151;-77
2023/04/19 07:20:05;;;;;;;4.72;2.70;;;14.80;92.20;;;;;;5038149;28;20110;-78
2023/04/19 07:22:32;;;;;;;5.40;2.80;;;15.20;91.30;;;;;;5055652;28;20410;-78
2023/04/19 07:24:58;;;;;;;4.10;2.65;;;15.50;91.40;;;;;;5056041;28;20229;-77
2023/04/19 07:27:24;;;;;;;2.90;2.20;;;15.50;90.10;;;;;;5059582;28;20056;-77
2023/04/19 07:29:50;;;;;;;4.72;2.92;;;16.00;90.00;;;;;;5053102;28;20132;-77
2023/04/19 07:32:16;;;;;;;3.35;2.42;;;16.40;90.30;;;;;;5059444;28;20046;-77
2023/04/19 07:34:42;;;;;;;3.00;2.33;;;16.50;89.50;;;;;;5057476;28;20060;-77
2023/04/19 07:37:08;;;;;;;2.60;2.40;;;16.30;86.80;;;;;;5057646;28;20053;-77
2023/04/19 07:39:34;;;;;;;6.68;3.22;;;16.40;83.60;;;;;;5057208;28;20102;-77
2023/04/19 07:42:02;;;;;;;3.00;2.40;;;15.90;82.80;;;;;;5056366;28;20064;-78
2023/04/19 07:44:28;;;;;;;4.15;3.03;;;15.60;85.80;;;;;;5058381;28;20052;-77
2023/04/19 07:46:53;;;;;;;3.75;2.97;;;16.00;87.30;;;;;;5055643;28;20095;-77
2023/04/19 07:49:19;;;;;;;3.38;3.10;;;16.50;85.40;;;;;;5058649;28;20560;-77
2023/04/19 07:51:45;;;;;;;5.22;3.03;;;16.90;84.00;;;;;;5056593;28;20052;-77
2023/04/19 07:54:11;;;;;;;3.55;2.65;;;16.90;84.60;;;;;;5055608;28;20044;-77
2023/04/19 07:56:37;;;;;;;4.00;2.90;;;17.30;84.10;;;;;;5057874;28;20059;-77
2023/04/19 07:59:03;;;;;;;3.63;2.95;;;17.00;80.50;;;;;;5075198;28;20114;-77
2023/04/19 08:01:29;;;;;;;3.47;2.35;;;17.30;80.20;;;;;;5056137;28;20127;-76
2023/04/19 08:03:54;;;;;;;4.03;2.75;;;17.20;79.50;;;;;;5059110;28;20041;-76
2023/04/19 08:06:20;;;;;;;4.07;2.42;;;17.20;79.10;;;;;;5051061;28;20049;-77
2023/04/19 08:08:47;;;;;;;2.88;2.58;;;17.20;78.10;;;;;;5056297;28;20045;-76
2023/04/19 08:11:12;;;;;;;3.00;2.58;;;17.40;78.20;;;;;;5057331;28;20044;-77
2023/04/19 08:13:38;;;;;;;2.45;2.25;;;17.80;79.80;;;;;;5056735;28;20045;-77
2023/04/19 08:16:04;;;;;;;3.35;2.40;;;18.10;78.90;;;;;;5056098;28;20053;-77
2023/04/19 08:18:30;;;;;;;2.95;2.50;;;18.00;77.60;;;;;;5054862;28;20045;-77
2023/04/19 08:20:57;;;;;;;5.40;2.67;;;17.70;77.20;;;;;;5045780;28;20045;-79
2023/04/19 08:23:22;;;;;;;3.05;2.75;;;17.80;79.60;;;;;;5051450;28;20202;-81
2023/04/19 08:25:48;;;;;;;2.42;2.20;;;17.10;76.00;;;;;;5054176;28;20612;-77
2023/04/19 08:28:14;;;;;;;3.47;2.53;;;16.60;77.80;;;;;;5059743;28;20072;-77
2023/04/19 08:30:40;;;;;;;3.80;2.75;;;16.40;78.10;;;;;;5079821;28;20763;-77
2023/04/19 08:33:06;;;;;;;3.47;2.05;;;16.70;77.40;;;;;;5060607;28;20538;-76
2023/04/19 08:35:34;;;;;;;2.78;2.00;;;17.00;78.60;;;;;;5059311;28;20110;-76
2023/04/19 08:37:59;;;;;;;3.83;2.50;;;17.40;76.50;;;;;;5052473;28;20040;-76
2023/04/19 08:40:25;;;;;;;2.53;2.25;;;17.20;76.40;;;;;;5060229;28;20599;-78
2023/04/19 08:42:51;;;;;;;3.45;2.60;;;16.60;74.90;;;;;;5059402;28;20059;-78
2023/04/19 08:45:20;;;;;;;2.25;1.92;;;16.90;77.60;;;;;;5059716;28;20477;-78
2023/04/19 08:47:46;;;;;;;1.92;1.83;;;17.30;74.30;;;;;;5059408;28;20120;-78
2023/04/19 08:50:12;;;;;;;2.95;2.25;;;17.20;75.90;;;;;;5055478;28;20047;-77
2023/04/19 08:52:39;;;;;;;2.67;1.90;;;17.20;76.40;;;;;;5057964;28;20897;-77
2023/04/19 08:55:06;;;;;;;2.30;1.60;;;17.10;74.00;;;;;;5057437;28;20058;-77
2023/04/19 08:57:33;;;;;;;2.38;1.90;;;17.40;74.80;;;;;;5054735;28;20052;-78
2023/04/19 09:00:00;;;;;;;2.78;2.10;;;17.40;73.80;;;;;;5054444;28;20040;-77
2023/04/19 09:02:26;;;;;;;6.20;2.33;;;16.90;75.40;;;;;;5055640;28;20060;-77
2023/04/19 09:04:51;;;;;;;2.70;1.92;;;16.40;74.30;;;;;;5054688;28;20040;-78
2023/04/19 09:07:25;;;;;;;2.75;1.92;;;16.80;74.20;;;;;;5055510;28;20037;-77
2023/04/19 09:10:08;;;;;;;2.08;1.88;;;17.00;71.10;;;;;;5070776;28;20152;-78
2023/04/19 09:12:34;;;;;;;3.22;2.53;;;16.50;70.90;;;;;;5057079;28;20386;-77
2023/04/19 09:15:03;;;;;;;2.58;1.73;;;16.80;72.80;;;;;;5058877;28;20048;-78
2023/04/19 09:17:30;;;;;;;3.60;2.38;;;16.90;74.70;;;;;;5057432;28;20532;-77
2023/04/19 09:19:56;;;;;;;3.95;1.98;;;17.20;75.00;;;;;;5059038;28;20861;-78
2023/04/19 09:22:22;;;;;;;1.80;1.52;;;17.20;73.90;;;;;;5055861;28;20568;-79
2023/04/19 09:24:48;;;;;;;2.95;2.70;;;17.20;71.50;;;;;;5058172;28;20059;-78
2023/04/19 09:27:27;;;;;;;2.13;1.52;;;17.20;73.30;;;;;;5058152;28;20090;-77
2023/04/19 09:29:55;;;;;;;2.88;1.63;;;17.70;72.10;;;;;;5056463;28;20056;-76
2023/04/19 09:32:21;;;;;;;2.13;1.80;;;17.90;70.50;;;;;;5053061;28;20501;-77
2023/04/19 09:34:55;;;;;;;4.47;1.90;;;17.30;71.10;;;;;;5054984;28;20053;-77
2023/04/19 09:37:21;;;;;;;4.22;2.17;;;17.10;71.90;;;;;;5050512;28;20143;-77
2023/04/19 09:39:47;;;;;;;2.47;1.40;;;16.60;71.90;;;;;;5059376;28;20106;-77
2023/04/19 09:42:13;;;;;;;3.80;1.95;;;17.10;70.50;;;;;;5059991;28;20052;-77
2023/04/19 09:44:38;;;;;;;2.80;1.88;;;17.00;65.80;;;;;;5059797;28;20098;-77
2023/04/19 09:47:26;;;;;;;2.63;1.52;;;17.50;66.80;;;;;;5059968;28;20052;-76
2023/04/19 09:50:08;;;;;;;2.38;1.80;;;17.70;68.20;;;;;;5060034;28;20048;-77
2023/04/19 09:52:34;;;;;;;2.50;2.22;;;17.80;68.70;;;;;;5060697;28;20454;-80
2023/04/19 09:55:03;;;;;;;3.17;1.55;;;17.80;67.20;;;;;;5057455;28;20044;-77
2023/04/19 09:57:29;;;;;;;2.72;1.60;;;17.70;68.70;;;;;;5059362;28;20121;-77
2023/04/19 09:59:55;;;;;;;2.15;1.73;;;18.10;68.10;;;;;;5060578;28;20055;-77
2023/04/19 10:02:23;;;;;;;1.65;1.55;;;17.80;66.40;;;;;;5060137;28;20057;-77
2023/04/19 10:04:49;;;;;;;1.85;1.75;;;17.50;66.60;;;;;;5042682;28;20049;-77
2023/04/19 10:07:15;;;;;;;3.90;1.95;;;17.90;66.00;;;;;;5043157;28;20170;-77
2023/04/19 10:09:40;;;;;;;2.33;1.70;;;17.90;66.80;;;;;;5044773;28;20587;-82
2023/04/19 10:12:06;;;;;;;2.83;1.58;;;17.20;65.20;;;;;;5055292;28;20040;-78
2023/04/19 10:14:35;;;;;;;2.03;1.70;;;17.10;67.50;;;;;;5060436;28;20057;-77
2023/04/19 10:17:01;;;;;;;1.58;1.48;;;17.00;67.30;;;;;;5060253;28;20155;-77
2023/04/19 10:19:28;;;;;;;4.90;2.08;;;16.80;68.20;;;;;;5060567;28;20068;-77
2023/04/19 10:21:55;;;;;;;3.03;1.63;;;17.10;69.60;;;;;;5060705;28;20089;-79
2023/04/19 10:24:22;;;;;;;1.50;1.40;;;16.50;67.10;;;;;;5057660;28;20048;-77
2023/04/19 10:27:10;;;;;;;3.85;1.38;;;16.80;68.70;;;;;;5031603;28;20140;-78
2023/04/19 10:29:59;;;;;;;3.67;2.08;;;16.90;70.00;;;;;;5046393;28;20452;-79
2023/04/19 10:32:38;;;;;;;7.45;2.00;;;16.50;68.60;;;;;;5060203;28;20155;-80
2023/04/19 10:35:08;;;;;;;6.60;2.13;;;16.50;67.90;;;;;;5044686;28;20045;-77
2023/04/19 10:37:38;;;;;;;5.38;1.80;;;16.60;68.60;;;;;;5058318;28;20052;-76
2023/04/19 10:40:06;;;;;;;2.38;1.30;;;16.80;68.40;;;;;;5053592;28;20090;-78
2023/04/19 10:43:09;;;;;;;2.88;1.35;;;17.10;67.60;;;;;;5059060;28;20667;-77
2023/04/19 10:45:35;;;;;;;1.20;1.10;;;17.60;65.40;;;;;;5048759;28;20071;-77
2023/04/19 10:48:03;;;;;;;1.48;1.38;;;17.70;65.10;;;;;;5046681;28;20576;-79
2023/04/19 10:50:29;;;;;;;1.88;1.42;;;17.00;66.50;;;;;;5057575;28;20044;-80
2023/04/19 10:52:55;;;;;;;4.93;1.50;;;16.80;69.80;;;;;;5056657;28;20122;-81
2023/04/19 10:55:20;;;;;;;1.25;1.15;;;16.10;69.80;;;;;;5056541;28;20131;-79
2023/04/19 10:58:05;;;;;;;4.00;1.90;;;15.50;69.80;;;;;;5056720;28;20121;-81
2023/04/19 11:00:32;;;;;;;5.47;2.00;;;15.10;71.00;;;;;;5058968;28;20094;-80
2023/04/19 11:03:37;;;;;;;2.55;1.33;;;14.40;69.40;;;;;;5088840;28;20051;-78
2023/04/19 11:06:20;;;;;;;2.53;1.77;;;14.40;72.10;;;;;;5056780;28;20052;-79
2023/04/19 11:08:46;;;;;;;3.47;1.65;;;14.40;73.10;;;;;;5055289;28;20106;-78
2023/04/19 11:11:14;;;;;;;2.25;1.65;;;14.70;71.60;;;;;;5056377;28;20051;-78
2023/04/19 11:13:42;;;;;;;1.38;1.27;;;14.50;71.90;;;;;;5058201;28;20044;-78
2023/04/19 11:16:08;;;;;;;2.13;1.88;;;14.60;73.60;;;;;;5054023;28;20048;-79
2023/04/19 11:18:34;;;;;;;3.38;1.58;;;14.60;72.10;;;;;;5091524;28;20930;-77
2023/04/19 11:21:00;;;;;;;2.65;1.58;;;14.40;71.10;;;;;;5058564;28;20056;-77
2023/04/19 11:23:26;;;;;;;2.30;1.55;;;14.30;71.90;;;;;;5051899;28;20053;-76
2023/04/19 11:25:52;;;;;;;1.95;1.77;;;14.40;71.60;;;;;;5052513;28;20040;-76
2023/04/19 11:28:18;;;;;;;2.40;1.98;;;14.10;72.30;;;;;;5056993;28;20114;-78
2023/04/19 11:30:44;;;;;;;2.28;1.85;;;14.10;73.10;;;;;;5087633;28;20632;-78
2023/04/19 11:33:11;;;;;;;4.10;2.30;;;14.10;73.70;;;;;;5056741;28;20055;-77
2023/04/19 11:35:38;;;;;;;3.08;2.08;;;14.10;75.40;;;;;;5086722;28;20048;-79
2023/04/19 11:38:04;;;;;;;2.47;2.28;;;13.80;73.10;;;;;;5053818;28;20049;-78
2023/04/19 11:40:31;;;;;;;2.33;1.98;;;13.80;75.70;;;;;;5054699;28;20057;-78
2023/04/19 11:43:03;;;;;;;3.30;2.53;;;13.80;75.10;;;;;;5052324;28;20195;-77
2023/04/19 11:45:33;;;;;;;5.43;2.53;;;13.80;77.70;;;;;;5059023;28;20056;-78
2023/04/19 11:47:59;;;;;;;5.93;3.33;;;13.80;75.90;;;;;;5059477;28;20044;-79
2023/04/19 11:50:32;;;;;;;3.72;2.42;;;13.80;77.80;;;;;;5057214;28;20044;-82
2023/04/19 11:52:58;;;;;;;3.80;2.67;;;13.90;76.00;;;;;;5056350;28;20561;-78
2023/04/19 11:55:25;;;;;;;3.75;2.80;;;13.90;76.70;;;;;;5057751;28;20473;-79
2023/04/19 11:57:51;;;;;;;5.75;3.45;;;14.00;76.70;;;;;;5062818;28;20068;-78
2023/04/19 12:00:26;;;;;;;4.30;3.00;;;13.80;76.50;;;;;;5058372;28;20183;-77
2023/04/19 12:02:52;;;;;;;4.88;2.80;;;13.90;78.40;;;;;;5045645;28;20118;-77
2023/04/19 12:05:18;;;;;;;4.00;2.72;;;13.80;76.70;;;;;;5049810;28;20044;-77
2023/04/19 12:08:06;;;;;;;4.10;2.65;;;13.70;76.90;;;;;;5062692;28;20110;-78
2023/04/19 12:10:33;;;;;;;5.05;3.22;;;13.60;77.20;;;;;;5058921;28;20096;-77
2023/04/19 12:12:59;;;;;;;7.32;3.78;;;13.80;79.00;;;;;;5058987;28;20765;-79
2023/04/19 12:15:44;;;;;;;3.85;3.25;;;13.90;77.40;;;;;;5057995;28;20051;-76
2023/04/19 12:18:10;;;;;;;5.75;3.03;;;13.90;79.70;;;;;;5059989;28;20084;-77
2023/04/19 12:20:37;;;;;;;4.28;2.90;;;13.90;77.20;;;;;;5056050;28;20156;-76
2023/04/19 12:23:03;;;;;;;6.57;3.20;;;14.00;78.10;;;;;;5058918;28;20103;-78
2023/04/19 12:25:33;;;;;;;3.25;2.92;;;13.90;78.30;;;;;;5058471;28;20102;-79
2023/04/19 12:28:02;;;;;;;6.57;2.78;;;13.90;76.90;;;;;;5061102;28;20052;-78
2023/04/19 12:30:28;;;;;;;4.45;2.85;;;14.10;79.10;;;;;;5060852;28;20051;-77
2023/04/19 12:32:54;;;;;;;3.88;2.85;;;14.00;78.30;;;;;;5057025;28;20044;-76
2023/04/19 12:35:21;;;;;;;3.80;2.80;;;13.90;78.00;;;;;;5058203;28;20049;-78
2023/04/19 12:37:47;;;;;;;3.92;2.60;;;13.90;79.50;;;;;;5073579;28;20044;-79
2023/04/19 12:40:14;;;;;;;8.27;3.00;;;13.80;79.30;;;;;;5058466;28;20048;-78
2023/04/19 12:42:40;;;;;;;2.75;2.28;;;13.90;79.40;;;;;;5053402;28;20053;-77
2023/04/19 12:45:06;;;;;;;4.00;2.83;;;14.20;78.80;;;;;;5050164;28;20106;-79
2023/04/19 12:47:31;;;;;;;3.10;2.80;;;14.30;78.60;;;;;;5050144;28;20063;-78